Time;durP1;ratioP1;P1;durP2;ratioP2;P2;SDS_P1;SDS_P2;PMS_P1;PMS_P2;Temp;Humidity;BMP_temperature;BMP_pressure;BME280_temperature;BME280_humidity;BME280_pressure;Samples;Min_cycle;Max_cycle;Signal;HPM_P1;HPM_P2
2022/01/21 00:00:52;;;;;;;12.43;4.18;;;;;;;;;;5161848;28;20101;-77
2022/01/21 00:03:26;;;;;;;11.87;4.57;;;;;;;;;;5173443;28;20061;-78
2022/01/21 00:05:59;;;;;;;14.05;5.05;;;;;;;;;;5175659;28;20669;-77
2022/01/21 00:08:31;;;;;;;11.60;5.07;;;;;;;;;;5165529;28;20060;-77
2022/01/21 00:11:04;;;;;;;12.70;4.70;;;;;;;;;;5174687;28;20053;-77
2022/01/21 00:13:38;;;;;;;17.35;6.05;;;1.10;99.90;;;;;;5174943;28;20042;-75
2022/01/21 00:16:19;;;;;;;10.77;4.72;;;1.10;99.90;;;;;;5156462;28;20559;-76
2022/01/21 00:19:11;;;;;;;9.75;4.45;;;1.10;99.90;;;;;;5174091;28;20054;-76
2022/01/21 00:30:10;;;;;;;13.80;5.45;;;;;;;;;;5177121;28;20042;-77
2022/01/21 00:30:38;;;;;;;20.70;5.20;;;;;;;;;;5156252;28;20069;-77
2022/01/21 00:33:11;;;;;;;13.97;5.03;;;;;;;;;;5194339;28;20044;-77
2022/01/21 00:35:43;;;;;;;19.17;5.35;;;;;;;;;;5180148;28;20050;-75
2022/01/21 00:38:16;;;;;;;11.37;4.57;;;;;;;;;;5170645;28;20056;-76
2022/01/21 00:40:49;;;;;;;12.55;5.07;;;;;;;;;;5153122;28;20307;-75
2022/01/21 00:43:31;;;;;;;14.90;4.95;;;;;;;;;;5174750;28;20056;-77
2022/01/21 00:46:04;;;;;;;14.35;4.65;;;;;;;;;;5177063;28;20524;-77
2022/01/21 00:48:37;;;;;;;17.00;5.00;;;;;;;;;;5175203;28;20049;-78
2022/01/21 00:51:09;;;;;;;13.18;4.68;;;;;;;;;;5160640;28;20394;-76
2022/01/21 00:53:42;;;;;;;14.85;4.93;;;;;;;;;;5148548;28;22081;-77
2022/01/21 00:56:15;;;;;;;16.17;5.00;;;1.10;99.90;;;;;;5172990;28;20753;-78
2022/01/21 00:58:48;;;;;;;19.27;5.05;;;;;;;;;;5180315;28;20046;-75
2022/01/21 01:01:26;;;;;;;13.57;5.28;;;;;;;;;;5138680;28;20056;-76
2022/01/21 01:04:00;;;;;;;15.18;5.22;;;;;;;;;;5168663;28;20056;-77
2022/01/21 01:06:33;;;;;;;20.60;7.90;;;;;;;;;;5176232;28;20042;-76
2022/01/21 01:09:05;;;;;;;14.40;5.70;;;;;;;;;;5158058;28;20046;-76
2022/01/21 01:20:20;;;;;;;11.75;4.93;;;;;;;;;;5175065;28;20041;-77
2022/01/21 01:22:59;;;;;;;11.20;4.55;;;;;;;;;;5185463;28;20244;-77
2022/01/21 01:28:24;;;;;;;12.13;4.72;;;;;;;;;;5174587;28;20058;-76
2022/01/21 01:30:56;;;;;;;18.43;5.90;;;;;;;;;;5176843;28;20050;-77
2022/01/21 01:33:36;;;;;;;11.57;5.60;;;;;;;;;;5166257;28;20053;-77
2022/01/21 01:36:09;;;;;;;17.60;5.18;;;1.30;99.90;;;;;;5178517;28;20232;-76
2022/01/21 01:39:09;;;;;;;;;;;1.30;99.90;;;;;;5183454;28;20054;-77
2022/01/21 01:42:00;;;;;;;15.40;5.05;;;1.20;99.90;;;;;;5191893;28;19929;-76
2022/01/21 01:50:30;;;;;;;12.13;4.88;;;;;;;;;;5174103;28;20045;-78
2022/01/21 01:53:04;;;;;;;19.77;5.50;;;1.20;99.90;;;;;;5196410;28;20057;-75
2022/01/21 01:55:37;;;;;;;20.50;5.82;;;;;;;;;;5157346;28;20417;-76
2022/01/21 01:58:12;;;;;;;15.30;5.27;;;;;;;;;;5151076;28;20054;-77
2022/01/21 02:00:45;;;;;;;15.75;5.75;;;;;;;;;;5164784;28;20308;-77
2022/01/21 02:03:18;;;;;;;11.97;5.43;;;;;;;;;;5161827;28;20054;-75
2022/01/21 02:05:51;;;;;;;22.33;5.88;;;;;;;;;;5173564;28;20308;-76
2022/01/21 02:08:25;;;;;;;12.23;5.45;;;1.10;99.90;;;;;;5160388;28;20041;-75
2022/01/21 02:10:58;;;;;;;19.08;5.53;;;;;;;;;;5163056;28;20064;-76
2022/01/21 02:13:39;;;;;;;12.98;5.57;;;;;;;;;;5176685;28;20076;-75
2022/01/21 02:21:50;;;;;;;13.57;5.15;;;;;;;;;;5176421;28;20037;-75
2022/01/21 02:24:31;;;;;;;14.73;5.25;;;1.00;99.90;;;;;;5177899;28;20050;-74
2022/01/21 02:27:04;;;;;;;14.13;5.20;;;;;;;;;;5175303;28;20072;-76
2022/01/21 02:29:53;;;;;;;16.80;5.17;;;;;;;;;;5179530;28;20049;-77
2022/01/21 02:32:26;;;;;;;16.63;5.43;;;;;;;;;;5165004;28;20041;-75
2022/01/21 02:34:59;;;;;;;14.88;4.97;;;;;;;;;;5176769;28;20047;-77
2022/01/21 02:37:31;;;;;;;15.07;4.90;;;;;;;;;;5167590;28;20042;-78
2022/01/21 02:40:04;;;;;;;15.68;5.53;;;;;;;;;;5161319;28;20045;-78
2022/01/21 02:42:37;;;;;;;14.20;5.28;;;;;;;;;;5157125;28;20041;-75
2022/01/21 02:45:13;;;;;;;17.83;6.80;;;1.10;99.90;;;;;;5157432;28;20052;-77
2022/01/21 02:47:46;;;;;;;15.63;6.05;;;;;;;;;;5177444;28;20045;-78
2022/01/21 02:50:19;;;;;;;13.30;5.15;;;;;;;;;;5165175;28;20605;-77
2022/01/21 02:53:07;;;;;;;16.80;5.87;;;;;;;;;;5174230;28;20428;-78
2022/01/21 02:55:40;;;;;;;25.30;5.95;;;;;;;;;;5172840;28;20056;-77
2022/01/21 02:58:13;;;;;;;13.27;5.32;;;;;;;;;;5155817;28;20061;-79
2022/01/21 03:00:46;;;;;;;16.75;5.05;;;;;;;;;;5156519;28;20056;-77
2022/01/21 03:03:19;;;;;;;16.00;4.67;;;;;;;;;;5171982;28;20053;-76
2022/01/21 03:05:52;;;;;;;13.93;4.55;;;;;;;;;;5175921;28;20040;-78
2022/01/21 03:08:25;;;;;;;12.48;4.28;;;;;;;;;;5179049;28;20203;-77
2022/01/21 03:10:58;;;;;;;13.80;4.87;;;;;;;;;;5173007;28;20502;-78
2022/01/21 03:13:30;;;;;;;11.63;4.97;;;;;;;;;;5164408;28;20313;-77
2022/01/21 03:16:03;;;;;;;11.17;4.43;;;;;;;;;;5167461;28;20037;-77
2022/01/21 03:18:36;;;;;;;20.13;5.05;;;;;;;;;;5159387;28;20046;-77
2022/01/21 03:21:15;;;;;;;14.33;4.93;;;;;;;;;;5171560;28;20069;-78
2022/01/21 03:23:51;;;;;;;9.68;4.07;;;1.00;99.90;;;;;;5135786;28;20929;-76
2022/01/21 03:26:26;;;;;;;14.38;4.65;;;1.00;99.90;;;;;;5152568;28;20056;-78
2022/01/21 03:29:01;;;;;;;17.02;5.70;;;1.00;99.90;;;;;;5168778;28;20052;-77
2022/01/21 03:31:37;;;;;;;16.90;5.10;;;;;;;;;;5187342;28;20060;-78
2022/01/21 03:34:10;;;;;;;17.52;5.18;;;;;;;;;;5152557;28;20057;-78
2022/01/21 03:36:43;;;;;;;17.83;5.97;;;;;;;;;;5169579;28;20057;-77
2022/01/21 03:39:17;;;;;;;14.18;4.70;;;;;;;;;;5167061;28;20038;-75
2022/01/21 03:41:50;;;;;;;11.40;4.97;;;;;;;;;;5162844;28;20053;-76
2022/01/21 03:44:24;;;;;;;13.95;5.18;;;;;;;;;;5176012;28;20057;-77
2022/01/21 03:46:56;;;;;;;11.37;4.73;;;;;;;;;;5145121;28;20481;-77
2022/01/21 03:49:36;;;;;;;17.38;5.40;;;;;;;;;;5153539;28;20154;-78
2022/01/21 03:52:09;;;;;;;17.15;4.55;;;;;;;;;;5174855;28;20295;-77
2022/01/21 03:54:42;;;;;;;12.20;5.03;;;;;;;;;;5147676;28;20069;-76
2022/01/21 03:57:15;;;;;;;15.40;4.88;;;;;;;;;;5167610;28;20409;-75
2022/01/21 03:59:48;;;;;;;11.35;5.07;;;;;;;;;;5171493;28;20048;-76
2022/01/21 04:02:21;;;;;;;10.95;4.00;;;;;;;;;;5155438;28;20536;-78
2022/01/21 04:04:54;;;;;;;13.02;4.40;;;;;;;;;;5189769;28;20049;-76
2022/01/21 04:07:27;;;;;;;14.40;5.27;;;;;;;;;;5174449;28;20050;-77
2022/01/21 04:10:00;;;;;;;13.63;4.93;;;;;;;;;;5176807;28;20834;-78
2022/01/21 04:12:33;;;;;;;14.00;4.78;;;;;;;;;;5155249;28;20053;-77
2022/01/21 04:15:07;;;;;;;16.00;5.07;;;;;;;;;;5162549;28;20053;-76
2022/01/21 04:17:40;;;;;;;16.05;5.55;;;;;;;;;;5191632;28;20305;-77
2022/01/21 04:20:13;;;;;;;18.85;4.85;;;1.00;99.90;;;;;;5177747;28;20046;-78
2022/01/21 04:22:46;;;;;;;;;;;1.00;99.90;;;;;;5164232;28;20057;-78
2022/01/21 04:25:19;;;;;;;12.65;4.97;;;;;;;;;;5183751;23;19952;-32
2022/01/21 04:27:52;;;;;;;18.52;4.80;;;;;;;;;;5198301;28;20415;-32
2022/01/21 04:30:25;;;;;;;10.18;4.97;;;;;;;;;;5202564;28;20230;-32
2022/01/21 04:32:58;;;;;;;12.55;4.72;;;;;;;;;;5186380;28;20052;-32
2022/01/21 04:35:33;;;;;;;12.13;4.72;;;0.90;99.90;;;;;;5218607;28;20043;-33
2022/01/21 04:38:09;;;;;;;13.85;5.18;;;;;;;;;;5193995;28;20057;-32
2022/01/21 04:40:50;;;;;;;13.32;5.10;;;;;;;;;;5206484;28;20140;-32
2022/01/21 04:49:06;;;;;;;14.45;6.20;;;;;;;;;;5198792;28;20428;-33
2022/01/21 04:51:48;;;;;;;10.30;5.73;;;;;;;;;;5218567;28;20074;-33
2022/01/21 04:54:21;;;;;;;10.50;4.25;;;;;;;;;;5206809;28;20041;-33
2022/01/21 04:56:54;;;;;;;11.50;5.13;;;;;;;;;;5199132;28;20099;-33
2022/01/21 04:59:27;;;;;;;14.20;5.20;;;;;;;;;;5188811;28;20041;-32
2022/01/21 05:02:00;;;;;;;15.10;6.10;;;;;;;;;;5153084;28;20048;-33
2022/01/21 05:04:32;;;;;;;17.70;5.90;;;;;;;;;;5176368;28;20071;-33
2022/01/21 05:07:08;;;;;;;10.53;5.37;;;;;;;;;;5187042;28;20044;-32
2022/01/21 05:09:41;;;;;;;11.50;5.45;;;;;;;;;;5199368;28;20055;-32
2022/01/21 05:12:19;;;;;;;18.13;5.17;;;;;;;;;;5187522;28;20053;-33
2022/01/21 05:17:42;;;;;;;17.17;6.25;;;;;;;;;;5186800;28;20044;-33
2022/01/21 05:20:15;;;;;;;25.75;8.60;;;;;;;;;;5180215;28;20404;-32
2022/01/21 05:23:11;;;;;;;13.00;5.63;;;;;;;;;;5210486;28;20056;-33
2022/01/21 05:25:44;;;;;;;12.70;5.18;;;;;;;;;;5186866;28;20041;-33
2022/01/21 05:28:17;;;;;;;13.90;5.38;;;;;;;;;;5200955;28;20117;-32
2022/01/21 05:31:10;;;;;;;11.23;5.63;;;;;;;;;;5194668;28;20060;-32
2022/01/21 05:33:54;;;;;;;16.00;6.00;;;;;;;;;;5181124;28;20422;-33
2022/01/21 05:36:46;;;;;;;13.07;5.63;;;;;;;;;;5201492;28;20049;-33
2022/01/21 05:39:38;;;;;;;17.85;6.03;;;;;;;;;;5180408;28;20040;-32
2022/01/21 05:42:24;;;;;;;16.80;6.43;;;;;;;;;;5203970;28;20052;-32
2022/01/21 05:47:48;;;;;;;20.23;7.15;;;;;;;;;;5198568;28;20059;-32
2022/01/21 05:50:34;;;;;;;14.88;7.25;;;;;;;;;;5193282;28;20055;-33
2022/01/21 05:53:25;;;;;;;16.08;5.53;;;;;;;;;;5202741;28;20049;-33
2022/01/21 05:56:07;;;;;;;20.33;5.70;;;;;;;;;;5181704;28;25358;-33
2022/01/21 05:59:00;;;;;;;16.88;5.47;;;;;;;;;;5204107;28;20052;-34
2022/01/21 06:01:33;;;;;;;17.60;5.60;;;0.90;99.90;;;;;;5175990;28;20048;-33
2022/01/21 06:04:07;;;;;;;13.23;6.35;;;;;;;;;;5192522;28;20045;-33
2022/01/21 06:06:40;;;;;;;12.80;5.93;;;;;;;;;;5169290;28;20073;-33
2022/01/21 06:09:13;;;;;;;15.00;8.52;;;;;;;;;;5153404;28;20052;-33
2022/01/21 06:11:46;;;;;;;11.70;3.87;;;;;;;;;;5192296;28;20052;-32
2022/01/21 06:14:19;;;;;;;13.93;3.47;;;;;;;;;;5185693;28;20063;-33
2022/01/21 06:16:52;;;;;;;;;;;0.30;99.90;;;;;;5178986;28;20040;-33
2022/01/21 06:19:25;;;;;;;6.97;2.65;;;;;;;;;;5201070;28;19924;-33
2022/01/21 06:21:58;;;;;;;21.23;3.40;;;;;;;;;;5205638;28;20044;-33
2022/01/21 06:24:31;;;;;;;12.82;4.07;;;;;;;;;;5200030;28;20049;-33
2022/01/21 06:27:04;;;;;;;12.98;3.40;;;;;;;;;;5206978;28;20053;-33
2022/01/21 06:29:37;;;;;;;7.95;3.95;;;;;;;;;;5212047;28;20558;-33
2022/01/21 06:32:10;;;;;;;6.67;3.50;;;;;;;;;;5188070;28;20139;-33
2022/01/21 06:34:42;;;;;;;11.35;3.97;;;;;;;;;;5199158;28;20063;-33
2022/01/21 06:37:15;;;;;;;18.13;4.32;;;;;;;;;;5216930;28;20048;-33
2022/01/21 06:39:48;;;;;;;9.70;3.63;;;;;;;;;;5222054;28;20238;-33
2022/01/21 06:42:24;;;;;;;6.37;3.13;;;;;;;;;;5219106;28;20063;-32
2022/01/21 06:44:57;;;;;;;13.23;3.97;;;;;;;;;;5224775;28;20040;-33
2022/01/21 06:47:30;;;;;;;16.08;4.07;;;;;;;;;;5205856;28;20052;-33
2022/01/21 06:50:03;;;;;;;6.60;4.55;;;;;;;;;;5223187;28;20033;-33
2022/01/21 06:52:36;;;;;;;14.20;4.63;;;;;;;;;;5221830;28;20056;-33
2022/01/21 06:55:09;;;;;;;20.80;4.85;;;;;;;;;;5219489;28;20048;-33
2022/01/21 06:57:42;;;;;;;13.35;4.68;;;;;;;;;;5207042;28;20053;-33
2022/01/21 07:00:18;;;;;;;18.97;4.80;;;-0.10;99.90;;;;;;5211492;28;20055;-33
2022/01/21 07:02:53;;;;;;;16.85;5.00;;;-0.10;99.90;;;;;;5216794;28;20525;-33
2022/01/21 07:05:29;;;;;;;11.05;4.43;;;;;;;;;;5214080;28;20044;-33
2022/01/21 07:08:02;;;;;;;20.45;6.32;;;;;;;;;;5197558;28;20033;-33
2022/01/21 07:10:34;;;;;;;12.53;6.40;;;;;;;;;;5203171;28;20045;-33
2022/01/21 07:13:11;;;;;;;10.95;4.80;;;;;;;;;;5207553;28;20040;-33
2022/01/21 07:15:43;;;;;;;12.90;3.95;;;;;;;;;;5217039;28;20053;-34
2022/01/21 07:18:16;;;;;;;12.90;4.60;;;;;;;;;;5224583;28;20416;-33
2022/01/21 07:20:49;;;;;;;11.23;4.13;;;;;;;;;;5220945;28;20786;-33
2022/01/21 07:23:22;;;;;;;8.13;4.30;;;;;;;;;;5219218;28;20048;-33
2022/01/21 07:25:54;;;;;;;13.10;4.40;;;;;;;;;;5212999;28;20523;-34
2022/01/21 07:28:27;;;;;;;24.87;4.83;;;;;;;;;;5213559;28;20449;-34
2022/01/21 07:31:00;;;;;;;12.25;4.38;;;;;;;;;;5216995;28;20295;-33
2022/01/21 07:33:33;;;;;;;14.40;3.97;;;;;;;;;;5220771;28;20048;-34
2022/01/21 07:36:06;;;;;;;11.32;4.05;;;0.10;99.90;;;;;;5212014;28;20548;-32
2022/01/21 07:38:41;;;;;;;13.15;4.10;;;;;;;;;;5216253;28;20056;-33
2022/01/21 07:41:13;;;;;;;13.10;4.70;;;;;;;;;;5216896;28;20603;-33
2022/01/21 07:43:47;;;;;;;11.20;4.00;;;;;;;;;;5199756;28;20420;-33
2022/01/21 07:46:20;;;;;;;14.25;5.18;;;;;;;;;;5209882;28;20448;-33
2022/01/21 07:48:53;;;;;;;13.82;4.22;;;;;;;;;;5214585;28;20040;-33
2022/01/21 07:51:26;;;;;;;9.77;3.47;;;0.40;99.90;;;;;;5220193;28;20040;-33
2022/01/21 07:53:59;;;;;;;10.57;4.45;;;;;;;;;;5187557;28;20060;-33
2022/01/21 07:56:33;;;;;;;17.13;4.73;;;0.40;99.90;;;;;;5206367;28;20078;-33
2022/01/21 07:59:08;;;;;;;19.63;4.57;;;0.40;99.90;;;;;;5220280;28;20603;-33
2022/01/21 08:01:41;;;;;;;20.08;5.88;;;;;;;;;;5206979;28;20243;-33
2022/01/21 08:04:14;;;;;;;13.35;4.78;;;;;;;;;;5196613;28;20708;-33
2022/01/21 08:06:47;;;;;;;19.83;4.65;;;;;;;;;;5211784;28;20090;-34
2022/01/21 08:09:24;;;;;;;14.57;5.33;;;;;;;;;;5219071;28;20047;-32
2022/01/21 08:11:56;;;;;;;16.15;5.60;;;;;;;;;;5218658;28;20049;-33
2022/01/21 08:14:29;;;;;;;18.33;5.60;;;;;;;;;;5196196;28;20052;-32
2022/01/21 08:17:02;;;;;;;20.15;4.82;;;;;;;;;;5210637;28;20048;-33
2022/01/21 08:19:35;;;;;;;10.57;4.90;;;;;;;;;;5219165;28;20049;-33
2022/01/21 08:22:08;;;;;;;16.93;5.23;;;;;;;;;;5204915;28;20329;-32
2022/01/21 08:24:41;;;;;;;19.25;5.45;;;;;;;;;;5205818;28;20798;-33
2022/01/21 08:27:14;;;;;;;12.50;6.63;;;;;;;;;;5208186;28;21258;-32
2022/01/21 08:29:46;;;;;;;16.53;5.90;;;;;;;;;;5209194;28;20044;-32
2022/01/21 08:32:20;;;;;;;14.40;6.20;;;;;;;;;;5200345;28;20049;-32
2022/01/21 08:34:52;;;;;;;19.38;5.05;;;;;;;;;;5214794;28;20047;-33
2022/01/21 08:37:25;;;;;;;13.80;6.10;;;;;;;;;;5222269;28;20048;-32
2022/01/21 08:39:58;;;;;;;14.00;5.63;;;;;;;;;;5201151;28;20495;-33
2022/01/21 08:42:31;;;;;;;15.57;6.87;;;;;;;;;;5213749;28;20047;-32
2022/01/21 08:45:05;;;;;;;19.65;5.78;;;1.30;97.60;;;;;;5225698;28;20075;-33
2022/01/21 08:47:40;;;;;;;16.33;6.22;;;1.10;97.60;;;;;;5218579;28;20045;-32
2022/01/21 08:50:17;;;;;;;16.73;5.72;;;1.00;97.50;;;;;;5215164;28;20048;-33
2022/01/21 08:52:55;;;;;;;18.65;5.82;;;;;;;;;;5217641;28;20499;-32
2022/01/21 08:55:28;;;;;;;13.55;4.30;;;;;;;;;;5220012;28;20420;-32
2022/01/21 08:58:01;;;;;;;20.67;3.90;;;;;;;;;;5220565;28;20208;-33
2022/01/21 09:00:35;;;;;;;8.83;4.93;;;;;;;;;;5206734;28;20132;-32
2022/01/21 09:03:08;;;;;;;19.65;5.30;;;;;;;;;;5202494;28;20500;-32
2022/01/21 09:05:48;;;;;;;13.23;4.80;;;;;;;;;;5211679;28;20112;-32
2022/01/21 09:08:23;;;;;;;17.60;4.50;;;1.00;95.80;;;;;;5220039;28;20291;-32
2022/01/21 09:10:58;;;;;;;15.98;4.97;;;1.10;95.00;;;;;;5207311;28;20067;-33
2022/01/21 09:13:38;;;;;;;10.32;4.43;;;1.10;95.10;;;;;;5214576;28;20417;-33
2022/01/21 09:16:11;;;;;;;14.30;4.82;;;;;;;;;;5219301;28;20327;-32
2022/01/21 09:18:47;;;;;;;16.73;5.13;;;1.60;94.60;;;;;;5212183;28;20056;-33
2022/01/21 09:21:36;;;;;;;10.63;4.53;;;1.80;94.40;;;;;;5220304;28;20515;-32
2022/01/21 09:24:09;;;;;;;17.15;5.60;;;;;;;;;;5217331;28;20056;-32
2022/01/21 09:26:43;;;;;;;16.05;4.53;;;;;;;;;;5218833;28;20071;-33
2022/01/21 09:29:16;;;;;;;18.02;4.78;;;;;;;;;;5209316;28;20177;-32
2022/01/21 09:31:48;;;;;;;;;;;1.80;92.70;;;;;;5210851;28;20048;-32
2022/01/21 09:34:28;;;;;;;12.25;4.63;;;1.40;94.00;;;;;;5224258;28;19925;-33
2022/01/21 09:37:01;;;;;;;19.90;5.85;;;;;;;;;;5213576;28;21105;-33
2022/01/21 09:39:34;;;;;;;14.43;5.00;;;;;;;;;;5205643;28;20049;-32
2022/01/21 09:42:07;;;;;;;14.40;4.70;;;;;;;;;;5210877;28;20060;-32
2022/01/21 09:44:40;;;;;;;15.25;4.38;;;;;;;;;;5198164;28;20492;-32
2022/01/21 09:47:16;;;;;;;18.73;5.68;;;;;;;;;;5216784;28;20052;-32
2022/01/21 09:49:49;;;;;;;15.30;4.97;;;1.10;94.30;;;;;;5204100;28;20306;-33
2022/01/21 09:52:23;;;;;;;16.10;5.50;;;1.10;95.00;;;;;;5215886;28;20041;-32
2022/01/21 09:54:56;;;;;;;20.05;5.20;;;;;;;;;;4517619;28;10000063;-32
2022/01/21 09:57:29;;;;;;;18.00;5.47;;;;;;;;;;5213185;28;20049;-33
2022/01/21 10:00:05;;;;;;;17.37;5.10;;;1.30;95.40;;;;;;5216148;28;20048;-32
2022/01/21 10:02:40;;;;;;;12.77;4.68;;;;;;;;;;5214478;28;20271;-33
2022/01/21 10:05:13;;;;;;;;;;;1.30;95.20;;;;;;5184056;28;20040;-33
2022/01/21 10:07:48;;;;;;;18.00;5.13;;;1.40;94.70;;;;;;5216261;28;19932;-33
2022/01/21 10:10:21;;;;;;;12.68;5.10;;;;;;;;;;5216376;28;20057;-32
2022/01/21 10:13:01;;;;;;;14.00;4.43;;;;;;;;;;5216861;28;20040;-33
2022/01/21 10:15:36;;;;;;;17.73;5.00;;;;;;;;;;5213221;28;20048;-33
2022/01/21 10:18:15;;;;;;;16.52;5.75;;;1.40;94.60;;;;;;5220624;28;20044;-34
2022/01/21 10:21:14;;;;;;;17.95;5.30;;;1.40;94.40;;;;;;5197745;28;20540;-34
2022/01/21 10:23:47;;;;;;;14.52;5.40;;;;;;;;;;5198589;28;20083;-33
2022/01/21 10:26:23;;;;;;;16.03;4.30;;;;;;;;;;5213915;28;20053;-33
2022/01/21 10:28:56;;;;;;;11.20;3.63;;;;;;;;;;5215865;28;20675;-34
2022/01/21 10:31:30;;;;;;;19.20;4.35;;;;;;;;;;5212150;28;20036;-34
2022/01/21 10:34:04;;;;;;;15.80;5.30;;;1.30;93.80;;;;;;5212285;28;20710;-38
2022/01/21 10:36:44;;;;;;;23.23;4.72;;;1.30;93.90;;;;;;5218996;28;20044;-34
2022/01/21 10:39:27;;;;;;;10.77;4.22;;;;;;;;;;5217849;28;20044;-33
2022/01/21 10:42:02;;;;;;;11.20;4.50;;;1.70;94.80;;;;;;5202710;28;20379;-33
2022/01/21 10:44:35;;;;;;;11.55;4.25;;;;;;;;;;5197832;28;20044;-34
2022/01/21 10:47:10;;;;;;;16.70;3.85;;;2.00;93.90;;;;;;5215635;28;20427;-33
2022/01/21 10:49:43;;;;;;;12.07;4.15;;;;;;;;;;5202193;28;20091;-33
2022/01/21 10:52:17;;;;;;;11.88;3.95;;;;;;;;;;5211432;28;20535;-33
2022/01/21 10:54:51;;;;;;;13.27;4.40;;;;;;;;;;5227742;23;20045;-35
2022/01/21 10:57:24;;;;;;;10.55;4.28;;;;;;;;;;5186643;28;20060;-35
2022/01/21 11:00:03;;;;;;;18.10;4.45;;;1.60;91.40;;;;;;5205701;28;20376;-38
2022/01/21 11:02:49;;;;;;;12.73;4.30;;;1.50;92.00;;;;;;5208714;28;20892;-38
2022/01/21 11:05:31;;;;;;;11.50;6.72;;;;;;;;;;5212657;28;20432;-39
2022/01/21 11:08:11;;;;;;;15.77;4.80;;;1.30;93.00;;;;;;5220175;28;20036;-38
2022/01/21 11:10:53;;;;;;;19.42;5.65;;;1.40;93.60;;;;;;5201009;28;20500;-38
2022/01/21 11:13:27;;;;;;;18.40;4.90;;;1.30;93.40;;;;;;5201266;28;20041;-38
2022/01/21 11:16:07;;;;;;;14.13;4.95;;;1.30;93.30;;;;;;5215426;28;20409;-38
2022/01/21 11:19:15;;;;;;;13.80;4.85;;;1.20;93.50;;;;;;5211471;28;20041;-37
2022/01/21 11:21:48;;;;;;;18.52;5.65;;;;;;;;;;5199090;28;20443;-38
2022/01/21 11:24:27;;;;;;;11.10;5.65;;;;;;;;;;5239706;27;20497;-39
2022/01/21 11:27:11;;;;;;;15.23;5.73;;;1.20;94.40;;;;;;5230652;28;20296;-36
2022/01/21 11:29:46;;;;;;;17.20;6.32;;;1.50;94.60;;;;;;5243168;28;20516;-38
2022/01/21 11:32:19;;;;;;;16.50;6.60;;;1.60;94.30;;;;;;5230587;28;21098;-35
2022/01/21 11:34:53;;;;;;;18.25;5.90;;;;;;;;;;5239236;28;20044;-37
2022/01/21 11:37:26;;;;;;;13.25;4.75;;;1.50;93.10;;;;;;5239038;22;20049;-32
2022/01/21 11:40:00;;;;;;;10.55;3.97;;;;;;;;;;5226066;28;20036;-32
2022/01/21 11:42:37;;;;;;;;;;;1.30;92.90;;;;;;5226906;28;20124;-33
2022/01/21 11:50:49;;;;;;;14.38;5.00;;;1.30;95.10;;;;;;5227314;28;20067;-39
2022/01/21 11:53:44;;;;;;;15.48;5.18;;;1.50;94.90;;;;;;5229598;28;20548;-33
2022/01/21 11:56:35;;;;;;;14.32;4.68;;;1.80;94.10;;;;;;5227979;28;20416;-32
2022/01/21 11:59:11;;;;;;;11.73;4.47;;;1.90;93.20;;;;;;5238894;28;20052;-34
2022/01/21 12:01:48;;;;;;;11.75;4.32;;;1.90;92.40;;;;;;5235108;28;20064;-32
2022/01/21 12:04:29;;;;;;;11.70;4.63;;;2.10;92.60;;;;;;5229823;28;20055;-32
2022/01/21 12:07:02;;;;;;;17.17;3.78;;;;;;;;;;5232913;28;20515;-33
2022/01/21 12:09:58;;;;;;;11.85;4.65;;;2.00;92.10;;;;;;5228446;28;20049;-32
2022/01/21 12:12:47;;;;;;;7.63;3.88;;;2.00;91.70;;;;;;5226502;28;20278;-32
2022/01/21 12:15:29;;;;;;;12.23;3.95;;;1.80;91.80;;;;;;5222435;28;20044;-33
2022/01/21 12:19:05;;;;;;;13.80;5.40;;;1.70;92.30;;;;;;5234880;28;20048;-32
2022/01/21 12:21:28;;;;;;;14.48;4.57;;;1.70;92.30;;;;;;5234011;28;20427;-32
2022/01/21 12:24:04;;;;;;;17.83;5.47;;;1.70;92.30;;;;;;5240590;28;20384;-31
2022/01/21 12:26:55;;;;;;;11.00;4.72;;;1.80;92.20;;;;;;5239889;28;20482;-32
2022/01/21 12:29:28;;;;;;;11.35;5.22;;;2.00;92.60;;;;;;5226429;28;20055;-31
2022/01/21 12:32:06;;;;;;;16.92;5.15;;;;;;;;;;5217192;28;20043;-32
2022/01/21 12:35:08;;;;;;;8.55;3.63;;;2.00;89.50;;;;;;5206518;28;20079;-32
2022/01/21 12:41:15;;;;;;;11.85;4.63;;;;;;;;;;5185375;28;20053;-32
2022/01/21 12:43:48;;;;;;;10.68;5.07;;;;;;;;;;5227061;28;20041;-32
2022/01/21 12:46:52;;;;;;;11.80;4.83;;;2.10;90.70;;;;;;5224382;28;20049;-33
2022/01/21 12:49:38;;;;;;;13.02;4.57;;;2.20;90.80;;;;;;5221960;28;20045;-32
2022/01/21 12:52:49;;;;;;;14.20;4.78;;;2.20;90.90;;;;;;5228400;28;20051;-33
2022/01/21 12:58:23;;;;;;;11.93;5.85;;;2.30;90.90;;;;;;5224596;28;20048;-32
2022/01/21 13:01:02;;;;;;;14.20;5.15;;;2.20;90.90;;;;;;4163021;28;10000618;-32
2022/01/21 13:03:51;;;;;;;9.40;4.60;;;2.10;92.00;;;;;;5206060;28;20343;-32
2022/01/21 13:06:41;;;;;;;14.23;5.40;;;2.20;91.30;;;;;;5206416;28;20107;-32
2022/01/21 13:09:21;;;;;;;15.65;5.20;;;2.20;91.60;;;;;;5226472;28;20049;-32
2022/01/21 13:11:58;;;;;;;21.88;5.05;;;2.30;91.20;;;;;;5226760;28;20036;-32
2022/01/21 13:17:09;;;;;;;16.42;5.65;;;2.30;91.10;;;;;;5222803;28;20049;-32
2022/01/21 13:19:49;;;;;;;9.98;4.95;;;2.30;91.30;;;;;;5227693;28;20532;-32
2022/01/21 13:22:28;;;;;;;16.13;4.53;;;2.40;90.80;;;;;;5222830;28;20075;-33
2022/01/21 13:25:06;;;;;;;15.48;4.68;;;;;;;;;;5223964;28;20044;-32
2022/01/21 13:27:50;;;;;;;17.00;4.43;;;2.40;90.70;;;;;;5225093;28;20041;-32
2022/01/21 13:30:28;;;;;;;8.82;4.43;;;2.40;91.70;;;;;;5224901;28;20040;-33
2022/01/21 13:33:10;;;;;;;10.57;4.18;;;2.40;90.30;;;;;;5226648;28;20419;-33
2022/01/21 13:35:44;;;;;;;9.38;3.90;;;2.20;90.10;;;;;;5225436;28;20045;-33
2022/01/21 13:38:19;;;;;;;8.73;3.83;;;2.30;91.10;;;;;;5226217;28;20048;-32
2022/01/21 13:40:56;;;;;;;12.52;3.28;;;2.30;90.10;;;;;;5202319;28;20037;-32
2022/01/21 13:43:32;;;;;;;9.35;3.38;;;2.30;90.00;;;;;;5219938;28;20044;-32
2022/01/21 13:46:10;;;;;;;13.15;4.25;;;2.40;90.50;;;;;;5215742;28;20056;-32
2022/01/21 13:48:43;;;;;;;11.15;4.13;;;;;;;;;;5223777;28;20408;-33
2022/01/21 13:51:15;;;;;;;11.10;4.07;;;;;;;;;;5213146;28;20428;-34
2022/01/21 13:53:48;;;;;;;9.52;3.65;;;;;;;;;;5225075;28;20547;-33
2022/01/21 13:56:21;;;;;;;9.30;3.58;;;;;;;;;;5208668;28;20489;-32
2022/01/21 13:58:56;;;;;;;9.35;4.10;;;2.60;88.00;;;;;;5199915;28;20070;-32
2022/01/21 14:01:30;;;;;;;12.32;3.35;;;;;;;;;;5222371;28;20072;-32
2022/01/21 14:04:08;;;;;;;13.63;4.18;;;2.60;87.90;;;;;;5221906;28;20040;-32
2022/01/21 14:06:42;;;;;;;12.07;3.38;;;;;;;;;;5203443;28;20052;-32
2022/01/21 14:09:22;;;;;;;8.00;4.18;;;2.50;89.20;;;;;;5224059;28;20040;-32
2022/01/21 14:11:56;;;;;;;13.38;4.40;;;;;;;;;;5224790;28;20047;-32
2022/01/21 14:14:29;;;;;;;13.38;3.08;;;;;;;;;;5218631;28;20064;-33
2022/01/21 14:17:02;;;;;;;12.23;3.70;;;;;;;;;;5223147;28;20507;-33
2022/01/21 14:19:40;;;;;;;11.55;3.88;;;2.60;88.30;;;;;;5225724;28;20387;-32
2022/01/21 14:22:16;;;;;;;13.00;4.07;;;;;;;;;;5223493;28;20052;-32
2022/01/21 14:24:51;;;;;;;8.50;3.28;;;2.40;90.40;;;;;;5218453;28;20045;-33
2022/01/21 14:27:30;;;;;;;11.43;3.58;;;2.60;89.90;;;;;;5216987;28;20510;-33
2022/01/21 14:30:06;;;;;;;12.80;3.33;;;2.40;89.40;;;;;;5214335;28;20304;-33
2022/01/21 14:32:41;;;;;;;10.95;4.97;;;;;;;;;;5218800;28;20149;-33
2022/01/21 14:35:19;;;;;;;15.23;3.83;;;2.30;89.40;;;;;;5194496;28;20063;-34
2022/01/21 14:37:54;;;;;;;14.00;3.45;;;2.30;90.30;;;;;;5200965;28;20427;-33
2022/01/21 14:40:31;;;;;;;10.50;3.70;;;2.20;90.20;;;;;;5219104;28;20041;-33
2022/01/21 14:43:13;;;;;;;9.95;3.13;;;2.20;90.00;;;;;;5226188;28;20063;-33
2022/01/21 14:45:59;;;;;;;8.73;3.67;;;2.20;90.40;;;;;;5191815;28;20052;-33
2022/01/21 14:48:33;;;;;;;8.98;3.67;;;;;;;;;;5219500;28;20049;-33
2022/01/21 14:51:12;;;;;;;;;;;2.10;89.50;;;;;;5221692;28;20045;-33
2022/01/21 14:53:45;;;;;;;8.45;3.30;;;;;;;;;;5193573;28;19931;-33
2022/01/21 14:56:24;;;;;;;16.97;4.70;;;2.10;90.70;;;;;;5214253;28;20063;-33
2022/01/21 14:59:13;;;;;;;13.55;4.68;;;2.10;90.60;;;;;;5216506;28;20049;-33
2022/01/21 15:01:59;;;;;;;7.63;3.42;;;2.10;90.80;;;;;;5222393;28;20496;-33
2022/01/21 15:04:35;;;;;;;11.23;4.05;;;2.10;89.60;;;;;;5217438;28;20049;-32
2022/01/21 15:07:23;;;;;;;12.02;3.83;;;2.00;90.70;;;;;;5217588;28;20051;-33
2022/01/21 15:10:01;;;;;;;15.88;4.47;;;2.00;90.40;;;;;;5219187;28;20045;-32
2022/01/21 15:15:28;;;;;;;19.00;4.85;;;;;;;;;;5216006;28;20052;-33
2022/01/21 15:18:03;;;;;;;13.23;3.67;;;1.90;91.30;;;;;;5221980;28;20590;-33
2022/01/21 15:20:37;;;;;;;16.77;4.05;;;1.90;90.40;;;;;;5211860;28;20076;-34
2022/01/21 15:23:11;;;;;;;8.65;4.07;;;;;;;;;;5213696;28;20044;-33
2022/01/21 15:25:43;;;;;;;6.55;3.65;;;;;;;;;;5196581;28;20069;-32
2022/01/21 15:28:16;;;;;;;17.38;3.88;;;;;;;;;;5204654;28;20269;-33
2022/01/21 15:30:49;;;;;;;9.60;4.05;;;;;;;;;;5223476;28;20041;-32
2022/01/21 15:33:22;;;;;;;12.57;5.40;;;;;;;;;;5202502;28;20048;-32
2022/01/21 15:35:55;;;;;;;13.55;4.85;;;;;;;;;;5216206;28;20507;-33
2022/01/21 15:38:28;;;;;;;11.40;4.00;;;;;;;;;;5211653;28;20057;-33
2022/01/21 15:41:01;;;;;;;12.30;4.40;;;1.80;91.30;;;;;;5221519;28;20040;-34
2022/01/21 15:43:34;;;;;;;11.80;4.00;;;;;;;;;;5221554;28;20048;-33